sensor_id;sensor_type;location;lat;lon;timestamp;pressure;altitude;pressure_sealevel;temperature;humidity
27984;BME280;15317;50.360;8.726;2022-12-18T00:00:06;100832.00;;;-10.50;100.00
27984;BME280;15317;50.360;8.726;2022-12-18T00:04:20;100831.13;;;-10.55;100.00
27984;BME280;15317;50.360;8.726;2022-12-18T00:08:24;100825.88;;;-10.60;100.00
27984;BME280;15317;50.360;8.726;2022-12-18T00:12:26;100833.75;;;-10.61;100.00
27984;BME280;15317;50.360;8.726;2022-12-18T00:16:29;100830.25;;;-10.60;100.00
27984;BME280;15317;50.360;8.726;2022-12-18T00:20:36;100814.50;;;-10.57;100.00
27984;BME280;15317;50.360;8.726;2022-12-18T00:24:39;100817.16;;;-10.53;100.00
27984;BME280;15317;50.360;8.726;2022-12-18T00:28:42;100819.75;;;-10.57;100.00
27984;BME280;15317;50.360;8.726;2022-12-18T00:32:44;100812.75;;;-10.61;100.00
27984;BME280;15317;50.360;8.726;2022-12-18T00:36:47;100809.25;;;-10.60;100.00
27984;BME280;15317;50.360;8.726;2022-12-18T00:40:51;100820.63;;;-10.66;100.00
27984;BME280;15317;50.360;8.726;2022-12-18T00:44:53;100824.13;;;-10.67;100.00
27984;BME280;15317;50.360;8.726;2022-12-18T00:48:55;100817.13;;;-10.62;100.00
27984;BME280;15317;50.360;8.726;2022-12-18T00:52:57;100824.09;;;-10.73;100.00
27984;BME280;15317;50.360;8.726;2022-12-18T00:57:00;100821.44;;;-10.77;100.00
27984;BME280;15317;50.360;8.726;2022-12-18T01:01:03;100831.09;;;-10.67;100.00
27984;BME280;15317;50.360;8.726;2022-12-18T01:05:06;100821.50;;;-10.67;100.00
27984;BME280;15317;50.360;8.726;2022-12-18T01:09:08;100821.50;;;-10.65;100.00
27984;BME280;15317;50.360;8.726;2022-12-18T01:13:12;100830.25;;;-10.66;100.00
27984;BME280;15317;50.360;8.726;2022-12-18T01:17:14;100828.47;;;-10.73;100.00
27984;BME280;15317;50.360;8.726;2022-12-18T01:21:16;100852.94;;;-10.76;100.00
27984;BME280;15317;50.360;8.726;2022-12-18T01:25:18;100852.94;;;-10.76;100.00
27984;BME280;15317;50.360;8.726;2022-12-18T01:29:22;100857.31;;;-10.75;100.00
27984;BME280;15317;50.360;8.726;2022-12-18T01:33:24;100860.84;;;-10.71;100.00
27984;BME280;15317;50.360;8.726;2022-12-18T01:37:26;100853.84;;;-10.72;100.00
27984;BME280;15317;50.360;8.726;2022-12-18T01:41:30;100853.81;;;-10.71;100.00
27984;BME280;15317;50.360;8.726;2022-12-18T01:45:53;100835.47;;;-10.72;100.00
27984;BME280;15317;50.360;8.726;2022-12-18T01:49:56;100834.59;;;-10.74;100.00
27984;BME280;15317;50.360;8.726;2022-12-18T01:53:59;100826.72;;;-10.73;100.00
27984;BME280;15317;50.360;8.726;2022-12-18T01:58:01;100815.34;;;-10.72;100.00
27984;BME280;15317;50.360;8.726;2022-12-18T02:02:06;100826.75;;;-10.65;100.00
27984;BME280;15317;50.360;8.726;2022-12-18T02:06:13;100830.25;;;-10.54;100.00
27984;BME280;15317;50.360;8.726;2022-12-18T02:10:20;100818.00;;;-10.55;100.00
27984;BME280;15317;50.360;8.726;2022-12-18T02:14:33;100811.88;;;-10.56;100.00
27984;BME280;15317;50.360;8.726;2022-12-18T02:18:41;100812.75;;;-10.61;100.00
27984;BME280;15317;50.360;8.726;2022-12-18T02:23:00;100821.50;;;-10.62;100.00
27984;BME280;15317;50.360;8.726;2022-12-18T02:27:05;100813.59;;;-10.62;100.00
27984;BME280;15317;50.360;8.726;2022-12-18T02:31:11;100821.50;;;-10.65;100.00
27984;BME280;15317;50.360;8.726;2022-12-18T02:35:17;100816.22;;;-10.68;100.00
27984;BME280;15317;50.360;8.726;2022-12-18T02:39:23;100819.75;;;-10.66;100.00
27984;BME280;15317;50.360;8.726;2022-12-18T02:43:29;100817.97;;;-10.67;100.00
27984;BME280;15317;50.360;8.726;2022-12-18T02:47:34;100824.09;;;-10.74;100.00
27984;BME280;15317;50.360;8.726;2022-12-18T02:51:45;100831.94;;;-10.81;100.00
27984;BME280;15317;50.360;8.726;2022-12-18T02:55:58;100834.56;;;-10.81;100.00
27984;BME280;15317;50.360;8.726;2022-12-18T03:00:06;100824.91;;;-10.85;100.00
27984;BME280;15317;50.360;8.726;2022-12-18T03:04:12;100821.44;;;-10.87;100.00
27984;BME280;15317;50.360;8.726;2022-12-18T03:08:19;100824.91;;;-10.89;100.00
27984;BME280;15317;50.360;8.726;2022-12-18T03:12:28;100831.91;;;-10.94;100.00
27984;BME280;15317;50.360;8.726;2022-12-18T03:16:34;100824.03;;;-10.93;100.00
27984;BME280;15317;50.360;8.726;2022-12-18T03:20:39;100810.03;;;-10.93;100.00
27984;BME280;15317;50.360;8.726;2022-12-18T03:24:44;100811.75;;;-10.98;100.00
27984;BME280;15317;50.360;8.726;2022-12-18T03:28:49;100818.75;;;-11.02;100.00
27984;BME280;15317;50.360;8.726;2022-12-18T03:33:00;100815.25;;;-11.02;100.00
27984;BME280;15317;50.360;8.726;2022-12-18T03:37:03;100805.63;;;-11.02;100.00
27984;BME280;15317;50.360;8.726;2022-12-18T03:41:11;100818.78;;;-10.99;100.00
27984;BME280;15317;50.360;8.726;2022-12-18T03:45:21;100817.88;;;-11.01;100.00
27984;BME280;15317;50.360;8.726;2022-12-18T03:49:32;100816.16;;;-10.99;100.00
27984;BME280;15317;50.360;8.726;2022-12-18T03:53:40;100807.38;;;-10.98;100.00
27984;BME280;15317;50.360;8.726;2022-12-18T03:57:44;100815.25;;;-10.98;100.00
27984;BME280;15317;50.360;8.726;2022-12-18T04:01:49;100816.16;;;-10.99;100.00
27984;BME280;15317;50.360;8.726;2022-12-18T04:05:55;100818.75;;;-10.96;100.00
27984;BME280;15317;50.360;8.726;2022-12-18T04:09:59;100817.88;;;-10.96;100.00
27984;BME280;15317;50.360;8.726;2022-12-18T04:14:02;100810.91;;;-10.99;100.00
27984;BME280;15317;50.360;8.726;2022-12-18T04:18:04;100815.25;;;-11.05;100.00
27984;BME280;15317;50.360;8.726;2022-12-18T04:22:10;100810.84;;;-11.08;100.00
27984;BME280;15317;50.360;8.726;2022-12-18T04:26:12;100809.97;;;-11.08;100.00
27984;BME280;15317;50.360;8.726;2022-12-18T04:30:14;100805.59;;;-11.09;100.00
27984;BME280;15317;50.360;8.726;2022-12-18T04:34:16;100803.81;;;-11.15;100.00
27984;BME280;15317;50.360;8.726;2022-12-18T04:38:19;100805.56;;;-11.20;100.00
27984;BME280;15317;50.360;8.726;2022-12-18T04:42:21;100810.81;;;-11.20;100.00
27984;BME280;15317;50.360;8.726;2022-12-18T04:46:23;100801.19;;;-11.21;100.00
27984;BME280;15317;50.360;8.726;2022-12-18T04:50:25;100801.19;;;-11.21;100.00
27984;BME280;15317;50.360;8.726;2022-12-18T04:54:29;100808.19;;;-11.20;100.00
27984;BME280;15317;50.360;8.726;2022-12-18T04:58:31;100812.53;;;-11.22;100.00
27984;BME280;15317;50.360;8.726;2022-12-18T05:02:33;100809.03;;;-11.24;100.00
27984;BME280;15317;50.360;8.726;2022-12-18T05:06:35;100802.03;;;-11.25;100.00
27984;BME280;15317;50.360;8.726;2022-12-18T05:10:38;100809.03;;;-11.27;100.00
27984;BME280;15317;50.360;8.726;2022-12-18T05:14:40;100813.38;;;-11.28;100.00
27984;BME280;15317;50.360;8.726;2022-12-18T05:18:43;100823.00;;;-11.27;100.00
27984;BME280;15317;50.360;8.726;2022-12-18T05:22:45;100816.00;;;-11.25;100.00
27984;BME280;15317;50.360;8.726;2022-12-18T05:26:48;100821.25;;;-11.25;100.00
27984;BME280;15317;50.360;8.726;2022-12-18T05:30:51;100814.28;;;-11.27;100.00
27984;BME280;15317;50.360;8.726;2022-12-18T05:34:53;100810.75;;;-11.29;100.00
27984;BME280;15317;50.360;8.726;2022-12-18T05:38:55;100807.25;;;-11.34;100.00
27984;BME280;15317;50.360;8.726;2022-12-18T05:42:58;100808.97;;;-11.36;100.00
27984;BME280;15317;50.360;8.726;2022-12-18T05:47:00;100825.56;;;-11.37;100.00
27984;BME280;15317;50.360;8.726;2022-12-18T05:51:05;100822.94;;;-11.37;100.00
27984;BME280;15317;50.360;8.726;2022-12-18T05:55:08;100819.50;;;-11.33;100.00
27984;BME280;15317;50.360;8.726;2022-12-18T05:59:11;100815.97;;;-11.35;100.00
27984;BME280;15317;50.360;8.726;2022-12-18T06:03:13;100831.66;;;-11.38;100.00
27984;BME280;15317;50.360;8.726;2022-12-18T06:07:15;100819.44;;;-11.39;100.00
27984;BME280;15317;50.360;8.726;2022-12-18T06:11:19;100815.06;;;-11.39;100.00
27984;BME280;15317;50.360;8.726;2022-12-18T06:15:23;100824.66;;;-11.39;100.00
27984;BME280;15317;50.360;8.726;2022-12-18T06:19:25;100831.69;;;-11.37;100.00
27984;BME280;15317;50.360;8.726;2022-12-18T06:23:27;100843.91;;;-11.37;100.00
27984;BME280;15317;50.360;8.726;2022-12-18T06:27:29;100835.16;;;-11.39;100.00
27984;BME280;15317;50.360;8.726;2022-12-18T06:31:33;100836.03;;;-11.42;100.00
27984;BME280;15317;50.360;8.726;2022-12-18T06:35:35;100828.16;;;-11.43;100.00
27984;BME280;15317;50.360;8.726;2022-12-18T06:39:37;100812.44;;;-11.46;100.00
27984;BME280;15317;50.360;8.726;2022-12-18T06:43:39;100821.16;;;-11.47;100.00
27984;BME280;15317;50.360;8.726;2022-12-18T06:47:42;100844.75;;;-11.47;100.00
27984;BME280;15317;50.360;8.726;2022-12-18T06:51:44;100838.63;;;-11.45;100.00
27984;BME280;15317;50.360;8.726;2022-12-18T06:55:46;100844.75;;;-11.44;100.00
27984;BME280;15317;50.360;8.726;2022-12-18T06:59:48;100846.56;;;-11.36;100.00
27984;BME280;15317;50.360;8.726;2022-12-18T07:03:53;100851.84;;;-11.30;100.00
27984;BME280;15317;50.360;8.726;2022-12-18T07:07:55;100866.72;;;-11.27;100.00
27984;BME280;15317;50.360;8.726;2022-12-18T07:11:57;100869.31;;;-11.26;100.00
27984;BME280;15317;50.360;8.726;2022-12-18T07:16:04;100872.00;;;-11.18;100.00
27984;BME280;15317;50.360;8.726;2022-12-18T07:20:09;100868.53;;;-11.11;100.00
27984;BME280;15317;50.360;8.726;2022-12-18T07:24:11;100867.72;;;-11.05;100.00
27984;BME280;15317;50.360;8.726;2022-12-18T07:28:13;100873.84;;;-10.97;100.00
27984;BME280;15317;50.360;8.726;2022-12-18T07:32:15;100872.13;;;-10.91;100.00
27984;BME280;15317;50.360;8.726;2022-12-18T07:36:19;100863.44;;;-10.81;100.00
27984;BME280;15317;50.360;8.726;2022-12-18T07:40:21;100857.38;;;-10.66;100.00
27984;BME280;15317;50.360;8.726;2022-12-18T07:44:23;100863.56;;;-10.44;100.00
27984;BME280;15317;50.360;8.726;2022-12-18T07:48:25;100865.31;;;-10.07;100.00
27984;BME280;15317;50.360;8.726;2022-12-18T07:52:29;100866.94;;;-8.99;100.00
27984;BME280;15317;50.360;8.726;2022-12-18T07:56:31;100867.28;;;-8.03;100.00
27984;BME280;15317;50.360;8.726;2022-12-18T08:00:34;100872.13;;;-7.48;93.91
27984;BME280;15317;50.360;8.726;2022-12-18T08:04:36;100862.25;;;-7.25;92.08
27984;BME280;15317;50.360;8.726;2022-12-18T08:08:39;100869.03;;;-6.31;90.25
27984;BME280;15317;50.360;8.726;2022-12-18T08:12:42;100874.16;;;-5.65;87.73
27984;BME280;15317;50.360;8.726;2022-12-18T08:16:44;100874.69;;;-4.97;86.38
27984;BME280;15317;50.360;8.726;2022-12-18T08:20:46;100862.03;;;-4.39;81.84
27984;BME280;15317;50.360;8.726;2022-12-18T08:24:50;100856.41;;;-3.49;77.08
27984;BME280;15317;50.360;8.726;2022-12-18T08:28:53;100854.75;;;-2.27;72.20
27984;BME280;15317;50.360;8.726;2022-12-18T08:32:55;100854.56;;;-1.12;67.00
27984;BME280;15317;50.360;8.726;2022-12-18T08:36:57;100849.13;;;-0.36;64.23
27984;BME280;15317;50.360;8.726;2022-12-18T08:41:03;100851.00;;;-1.92;67.37
27984;BME280;15317;50.360;8.726;2022-12-18T08:45:06;100854.34;;;-3.74;69.80
27984;BME280;15317;50.360;8.726;2022-12-18T08:49:09;100859.94;;;-5.10;72.93
27984;BME280;15317;50.360;8.726;2022-12-18T08:53:12;100846.13;;;-6.32;78.64
27984;BME280;15317;50.360;8.726;2022-12-18T08:57:15;100837.16;;;-6.88;82.68
27984;BME280;15317;50.360;8.726;2022-12-18T09:01:17;100825.38;;;-7.36;86.50
27984;BME280;15317;50.360;8.726;2022-12-18T09:05:19;100824.81;;;-7.70;90.24
27984;BME280;15317;50.360;8.726;2022-12-18T09:09:21;100827.56;;;-7.82;91.95
27984;BME280;15317;50.360;8.726;2022-12-18T09:13:25;100829.31;;;-7.79;94.83
27984;BME280;15317;50.360;8.726;2022-12-18T09:17:28;100825.63;;;-7.59;94.52
27984;BME280;15317;50.360;8.726;2022-12-18T09:21:32;100844.72;;;-7.32;96.18
27984;BME280;15317;50.360;8.726;2022-12-18T09:25:35;100850.88;;;-5.97;94.21
27984;BME280;15317;50.360;8.726;2022-12-18T09:29:39;100858.41;;;-3.25;86.90
27984;BME280;15317;50.360;8.726;2022-12-18T09:33:41;100857.88;;;-0.56;75.14
27984;BME280;15317;50.360;8.726;2022-12-18T09:37:45;100860.63;;;1.76;64.92
27984;BME280;15317;50.360;8.726;2022-12-18T09:41:51;100853.63;;;3.00;52.11
27984;BME280;15317;50.360;8.726;2022-12-18T09:45:59;100868.91;;;3.98;50.13
27984;BME280;15317;50.360;8.726;2022-12-18T09:50:06;100864.34;;;4.31;47.19
27984;BME280;15317;50.360;8.726;2022-12-18T09:54:22;100859.06;;;3.66;47.31
27984;BME280;15317;50.360;8.726;2022-12-18T09:58:29;100864.78;;;4.08;46.79
27984;BME280;15317;50.360;8.726;2022-12-18T10:02:34;100864.50;;;3.31;46.29
27984;BME280;15317;50.360;8.726;2022-12-18T10:06:40;100851.25;;;1.27;51.29
27984;BME280;15317;50.360;8.726;2022-12-18T10:10:48;100857.38;;;-0.67;57.84
27984;BME280;15317;50.360;8.726;2022-12-18T10:14:57;100864.00;;;-2.11;64.07
27984;BME280;15317;50.360;8.726;2022-12-18T10:19:22;100847.72;;;-3.56;71.79
27984;BME280;15317;50.360;8.726;2022-12-18T10:23:32;100846.31;;;-4.09;76.98
27984;BME280;15317;50.360;8.726;2022-12-18T10:27:35;100844.53;;;-4.90;82.88
27984;BME280;15317;50.360;8.726;2022-12-18T10:31:37;100839.84;;;-5.21;86.97
27984;BME280;15317;50.360;8.726;2022-12-18T10:35:41;100836.72;;;-5.44;90.90
27984;BME280;15317;50.360;8.726;2022-12-18T10:39:44;100840.16;;;-5.39;91.65
27984;BME280;15317;50.360;8.726;2022-12-18T10:43:46;100827.78;;;-5.37;91.75
27984;BME280;15317;50.360;8.726;2022-12-18T10:47:49;100824.38;;;-5.45;93.57
27984;BME280;15317;50.360;8.726;2022-12-18T10:52:05;100822.66;;;-5.46;94.39
27984;BME280;15317;50.360;8.726;2022-12-18T10:56:07;100827.25;;;-5.55;95.06
27984;BME280;15317;50.360;8.726;2022-12-18T11:00:24;100819.88;;;-5.87;97.45
27984;BME280;15317;50.360;8.726;2022-12-18T11:04:29;100823.06;;;-5.70;97.87
27984;BME280;15317;50.360;8.726;2022-12-18T11:08:33;100827.63;;;-5.80;98.28
27984;BME280;15317;50.360;8.726;2022-12-18T11:12:35;100833.63;;;-5.67;98.79
27984;BME280;15317;50.360;8.726;2022-12-18T11:16:44;100836.28;;;-5.67;99.46
27984;BME280;15317;50.360;8.726;2022-12-18T11:20:51;100814.63;;;-5.90;100.00
27984;BME280;15317;50.360;8.726;2022-12-18T11:24:59;100824.97;;;-5.78;100.00
27984;BME280;15317;50.360;8.726;2022-12-18T11:29:08;100808.22;;;-5.79;100.00
27984;BME280;15317;50.360;8.726;2022-12-18T11:33:14;100794.81;;;-5.68;100.00
27984;BME280;15317;50.360;8.726;2022-12-18T11:37:18;100786.03;;;-5.70;100.00
27984;BME280;15317;50.360;8.726;2022-12-18T11:41:27;100783.16;;;-5.58;100.00
27984;BME280;15317;50.360;8.726;2022-12-18T11:45:49;100773.38;;;-5.53;100.00
27984;BME280;15317;50.360;8.726;2022-12-18T11:49:55;100788.34;;;-5.52;100.00
27984;BME280;15317;50.360;8.726;2022-12-18T11:53:59;100796.19;;;-5.46;100.00
27984;BME280;15317;50.360;8.726;2022-12-18T11:58:10;100793.47;;;-5.43;100.00
27984;BME280;15317;50.360;8.726;2022-12-18T12:02:25;100788.78;;;-5.29;100.00
27984;BME280;15317;50.360;8.726;2022-12-18T12:06:37;100791.66;;;-5.39;100.00
27984;BME280;15317;50.360;8.726;2022-12-18T12:10:53;100793.09;;;-5.25;100.00
27984;BME280;15317;50.360;8.726;2022-12-18T12:15:03;100797.88;;;-5.42;100.00
27984;BME280;15317;50.360;8.726;2022-12-18T12:19:26;100803.22;;;-5.45;100.00
27984;BME280;15317;50.360;8.726;2022-12-18T12:23:39;100786.88;;;-5.21;100.00
27984;BME280;15317;50.360;8.726;2022-12-18T12:27:51;100785.53;;;-5.43;100.00
27984;BME280;15317;50.360;8.726;2022-12-18T12:32:07;100787.28;;;-5.42;100.00
27984;BME280;15317;50.360;8.726;2022-12-18T12:36:19;100788.94;;;-5.38;100.00
27984;BME280;15317;50.360;8.726;2022-12-18T12:40:27;100789.03;;;-5.41;100.00
27984;BME280;15317;50.360;8.726;2022-12-18T12:44:34;100782.03;;;-5.45;100.00
27984;BME280;15317;50.360;8.726;2022-12-18T12:48:42;100765.34;;;-5.48;100.00
27984;BME280;15317;50.360;8.726;2022-12-18T12:52:47;100761.53;;;-5.81;100.00
27984;BME280;15317;50.360;8.726;2022-12-18T12:56:55;100763.19;;;-5.76;100.00
27984;BME280;15317;50.360;8.726;2022-12-18T13:01:08;100761.22;;;-5.65;100.00
27984;BME280;15317;50.360;8.726;2022-12-18T13:05:18;100767.28;;;-5.58;100.00
27984;BME280;15317;50.360;8.726;2022-12-18T13:09:21;100765.38;;;-5.51;100.00
27984;BME280;15317;50.360;8.726;2022-12-18T13:13:23;100769.88;;;-5.55;100.00
27984;BME280;15317;50.360;8.726;2022-12-18T13:17:30;100761.84;;;-5.50;100.00
27984;BME280;15317;50.360;8.726;2022-12-18T13:21:34;100755.06;;;-5.65;100.00
27984;BME280;15317;50.360;8.726;2022-12-18T13:25:37;100755.69;;;-5.52;100.00
27984;BME280;15317;50.360;8.726;2022-12-18T13:29:43;100754.16;;;-5.64;100.00
27984;BME280;15317;50.360;8.726;2022-12-18T13:33:46;100757.53;;;-5.56;100.00
27984;BME280;15317;50.360;8.726;2022-12-18T13:37:54;100760.03;;;-5.48;100.00
27984;BME280;15317;50.360;8.726;2022-12-18T13:46:58;100753.50;;;-5.31;100.00
27984;BME280;15317;50.360;8.726;2022-12-18T13:51:03;100758.69;;;-5.25;100.00
27984;BME280;15317;50.360;8.726;2022-12-18T13:55:16;100761.34;;;-5.25;100.00
27984;BME280;15317;50.360;8.726;2022-12-18T13:59:21;100758.75;;;-5.28;100.00
27984;BME280;15317;50.360;8.726;2022-12-18T14:03:26;100753.28;;;-5.19;100.00
27984;BME280;15317;50.360;8.726;2022-12-18T14:07:29;100751.47;;;-5.17;100.00
27984;BME280;15317;50.360;8.726;2022-12-18T14:11:33;100746.16;;;-5.17;100.00
27984;BME280;15317;50.360;8.726;2022-12-18T14:15:39;100739.44;;;-5.33;100.00
27984;BME280;15317;50.360;8.726;2022-12-18T14:19:43;100742.78;;;-5.25;100.00
27984;BME280;15317;50.360;8.726;2022-12-18T14:23:46;100748.03;;;-5.22;100.00
27984;BME280;15317;50.360;8.726;2022-12-18T14:27:52;100751.47;;;-5.18;100.00
27984;BME280;15317;50.360;8.726;2022-12-18T14:32:10;100748.63;;;-5.06;100.00
27984;BME280;15317;50.360;8.726;2022-12-18T14:36:15;100754.09;;;-5.15;100.00
27984;BME280;15317;50.360;8.726;2022-12-18T14:40:18;100761.13;;;-5.14;100.00
27984;BME280;15317;50.360;8.726;2022-12-18T14:44:21;100748.94;;;-5.23;100.00
27984;BME280;15317;50.360;8.726;2022-12-18T14:48:33;100745.41;;;-5.23;100.00
27984;BME280;15317;50.360;8.726;2022-12-18T14:52:37;100744.63;;;-5.27;100.00
27984;BME280;15317;50.360;8.726;2022-12-18T14:56:44;100739.38;;;-5.30;100.00
27984;BME280;15317;50.360;8.726;2022-12-18T15:00:48;100739.38;;;-5.30;100.00
27984;BME280;15317;50.360;8.726;2022-12-18T15:05:00;100739.50;;;-5.36;100.00
27984;BME280;15317;50.360;8.726;2022-12-18T15:09:05;100741.28;;;-5.38;100.00
27984;BME280;15317;50.360;8.726;2022-12-18T15:13:22;100733.44;;;-5.41;100.00
27984;BME280;15317;50.360;8.726;2022-12-18T15:17:26;100731.72;;;-5.45;100.00
27984;BME280;15317;50.360;8.726;2022-12-18T15:21:29;100727.25;;;-5.40;100.00
27984;BME280;15317;50.360;8.726;2022-12-18T15:25:34;100721.13;;;-5.45;100.00
27984;BME280;15317;50.360;8.726;2022-12-18T15:29:38;100722.97;;;-5.48;100.00
27984;BME280;15317;50.360;8.726;2022-12-18T15:33:43;100722.09;;;-5.47;100.00
27984;BME280;15317;50.360;8.726;2022-12-18T15:37:47;100718.47;;;-5.45;100.00
27984;BME280;15317;50.360;8.726;2022-12-18T15:41:49;100721.06;;;-5.40;100.00
27984;BME280;15317;50.360;8.726;2022-12-18T15:46:08;100714.03;;;-5.41;100.00
27984;BME280;15317;50.360;8.726;2022-12-18T15:50:13;100715.72;;;-5.39;100.00
27984;BME280;15317;50.360;8.726;2022-12-18T15:54:15;100699.81;;;-5.39;100.00
27984;BME280;15317;50.360;8.726;2022-12-18T15:58:17;100686.59;;;-5.39;100.00
27984;BME280;15317;50.360;8.726;2022-12-18T16:02:21;100685.78;;;-5.41;100.00
27984;BME280;15317;50.360;8.726;2022-12-18T16:06:25;100693.63;;;-5.38;100.00
27984;BME280;15317;50.360;8.726;2022-12-18T16:10:27;100685.69;;;-5.38;100.00
27984;BME280;15317;50.360;8.726;2022-12-18T16:14:30;100684.78;;;-5.37;100.00
27984;BME280;15317;50.360;8.726;2022-12-18T16:18:32;100681.19;;;-5.33;100.00
27984;BME280;15317;50.360;8.726;2022-12-18T16:22:35;100675.94;;;-5.36;100.00
27984;BME280;15317;50.360;8.726;2022-12-18T16:26:37;100657.38;;;-5.34;100.00
27984;BME280;15317;50.360;8.726;2022-12-18T16:30:39;100672.28;;;-5.29;100.00
27984;BME280;15317;50.360;8.726;2022-12-18T16:34:42;100657.28;;;-5.30;100.00
27984;BME280;15317;50.360;8.726;2022-12-18T16:38:45;100639.72;;;-5.32;100.00
27984;BME280;15317;50.360;8.726;2022-12-18T16:42:47;100632.59;;;-5.32;100.00
27984;BME280;15317;50.360;8.726;2022-12-18T16:46:49;100638.75;;;-5.30;100.00
27984;BME280;15317;50.360;8.726;2022-12-18T16:50:53;100636.13;;;-5.31;100.00
27984;BME280;15317;50.360;8.726;2022-12-18T16:55:02;100637.00;;;-5.31;100.00
27984;BME280;15317;50.360;8.726;2022-12-18T16:59:05;100640.50;;;-5.29;100.00
27984;BME280;15317;50.360;8.726;2022-12-18T17:03:07;100638.84;;;-5.34;100.00
27984;BME280;15317;50.360;8.726;2022-12-18T17:07:10;100630.06;;;-5.36;100.00
27984;BME280;15317;50.360;8.726;2022-12-18T17:11:13;100625.63;;;-5.36;100.00
27984;BME280;15317;50.360;8.726;2022-12-18T17:15:16;100628.13;;;-5.28;100.00
27984;BME280;15317;50.360;8.726;2022-12-18T17:19:18;100631.69;;;-5.31;100.00
27984;BME280;15317;50.360;8.726;2022-12-18T17:23:20;100636.94;;;-5.28;100.00
27984;BME280;15317;50.360;8.726;2022-12-18T17:27:23;100633.31;;;-5.24;100.00
27984;BME280;15317;50.360;8.726;2022-12-18T17:31:27;100635.16;;;-5.26;100.00
27984;BME280;15317;50.360;8.726;2022-12-18T17:35:30;100633.31;;;-5.24;100.00
27984;BME280;15317;50.360;8.726;2022-12-18T17:39:32;100650.00;;;-5.19;100.00
27984;BME280;15317;50.360;8.726;2022-12-18T17:43:36;100637.66;;;-5.20;100.00
27984;BME280;15317;50.360;8.726;2022-12-18T17:47:39;100635.81;;;-5.18;100.00
27984;BME280;15317;50.360;8.726;2022-12-18T17:51:41;100629.63;;;-5.17;100.00
27984;BME280;15317;50.360;8.726;2022-12-18T17:55:52;100631.38;;;-5.15;100.00
27984;BME280;15317;50.360;8.726;2022-12-18T17:59:56;100616.34;;;-5.15;100.00
27984;BME280;15317;50.360;8.726;2022-12-18T18:03:58;100618.06;;;-5.12;100.00
27984;BME280;15317;50.360;8.726;2022-12-18T18:08:01;100614.59;;;-5.16;100.00
27984;BME280;15317;50.360;8.726;2022-12-18T18:12:04;100611.97;;;-5.16;100.00
27984;BME280;15317;50.360;8.726;2022-12-18T18:16:25;100616.38;;;-5.17;100.00
27984;BME280;15317;50.360;8.726;2022-12-18T18:20:27;100617.16;;;-5.11;100.00
27984;BME280;15317;50.360;8.726;2022-12-18T18:24:32;100602.91;;;-5.06;100.00
27984;BME280;15317;50.360;8.726;2022-12-18T18:28:35;100596.78;;;-5.08;100.00
27984;BME280;15317;50.360;8.726;2022-12-18T18:32:38;100604.63;;;-5.05;100.00
27984;BME280;15317;50.360;8.726;2022-12-18T18:36:40;100609.13;;;-5.07;100.00
27984;BME280;15317;50.360;8.726;2022-12-18T18:40:42;100609.91;;;-5.03;100.00
27984;BME280;15317;50.360;8.726;2022-12-18T18:44:44;100598.38;;;-5.01;100.00
27984;BME280;15317;50.360;8.726;2022-12-18T18:48:48;100605.38;;;-4.98;100.00
27984;BME280;15317;50.360;8.726;2022-12-18T18:52:50;100591.31;;;-5.02;100.00
27984;BME280;15317;50.360;8.726;2022-12-18T18:56:52;100578.94;;;-5.00;100.00
27984;BME280;15317;50.360;8.726;2022-12-18T19:00:55;100567.38;;;-4.97;100.00
27984;BME280;15317;50.360;8.726;2022-12-18T19:04:59;100565.56;;;-4.95;100.00
27984;BME280;15317;50.360;8.726;2022-12-18T19:09:02;100575.94;;;-4.86;100.00
27984;BME280;15317;50.360;8.726;2022-12-18T19:13:04;100573.16;;;-4.82;100.00
27984;BME280;15317;50.360;8.726;2022-12-18T19:17:21;100566.22;;;-4.86;100.00
27984;BME280;15317;50.360;8.726;2022-12-18T19:21:25;100550.19;;;-4.81;100.00
27984;BME280;15317;50.360;8.726;2022-12-18T19:25:28;100558.22;;;-4.84;100.00
27984;BME280;15317;50.360;8.726;2022-12-18T19:29:32;100557.25;;;-4.80;100.00
27984;BME280;15317;50.360;8.726;2022-12-18T19:33:36;100555.50;;;-4.81;100.00
27984;BME280;15317;50.360;8.726;2022-12-18T19:37:40;100560.81;;;-4.83;100.00
27984;BME280;15317;50.360;8.726;2022-12-18T19:41:43;100557.31;;;-4.83;100.00
27984;BME280;15317;50.360;8.726;2022-12-18T19:45:45;100564.34;;;-4.82;100.00
27984;BME280;15317;50.360;8.726;2022-12-18T19:49:47;100547.38;;;-4.75;100.00
27984;BME280;15317;50.360;8.726;2022-12-18T19:53:51;100543.91;;;-4.77;100.00
27984;BME280;15317;50.360;8.726;2022-12-18T19:57:55;100527.94;;;-4.74;100.00
27984;BME280;15317;50.360;8.726;2022-12-18T20:01:57;100532.31;;;-4.73;100.00
27984;BME280;15317;50.360;8.726;2022-12-18T20:06:07;100526.94;;;-4.70;100.00
27984;BME280;15317;50.360;8.726;2022-12-18T20:10:12;100523.34;;;-4.67;100.00
27984;BME280;15317;50.360;8.726;2022-12-18T20:14:15;100521.47;;;-4.64;100.00
27984;BME280;15317;50.360;8.726;2022-12-18T20:18:17;100534.72;;;-4.64;100.00
27984;BME280;15317;50.360;8.726;2022-12-18T20:22:19;100536.41;;;-4.60;100.00
27984;BME280;15317;50.360;8.726;2022-12-18T20:26:22;100529.13;;;-4.52;100.00
27984;BME280;15317;50.360;8.726;2022-12-18T20:30:25;100530.78;;;-4.48;100.00
27984;BME280;15317;50.360;8.726;2022-12-18T20:34:27;100539.41;;;-4.40;100.00
27984;BME280;15317;50.360;8.726;2022-12-18T20:38:29;100527.78;;;-4.35;100.00
27984;BME280;15317;50.360;8.726;2022-12-18T20:42:32;100532.19;;;-4.34;100.00
27984;BME280;15317;50.360;8.726;2022-12-18T20:46:34;100532.19;;;-4.34;100.00
27984;BME280;15317;50.360;8.726;2022-12-18T20:50:36;100523.16;;;-4.27;100.00
27984;BME280;15317;50.360;8.726;2022-12-18T20:54:39;100522.97;;;-4.21;100.00
27984;BME280;15317;50.360;8.726;2022-12-18T20:58:42;100522.97;;;-4.21;100.00
27984;BME280;15317;50.360;8.726;2022-12-18T21:02:44;100526.47;;;-4.19;100.00